sensor_id;sensor_type;location;lat;lon;timestamp;temperature;humidity
18502;DHT22;68437;52.236;5.710;2023-05-15T00:01:58;12.00;99.90
18502;DHT22;68437;52.236;5.710;2023-05-15T00:04:26;12.00;99.90
18502;DHT22;68437;52.236;5.710;2023-05-15T00:06:53;12.00;99.90
18502;DHT22;68437;52.236;5.710;2023-05-15T00:09:20;12.10;99.90
18502;DHT22;68437;52.236;5.710;2023-05-15T00:11:48;12.00;99.90
18502;DHT22;68437;52.236;5.710;2023-05-15T00:14:15;12.10;99.90
18502;DHT22;68437;52.236;5.710;2023-05-15T00:16:42;12.00;99.90
18502;DHT22;68437;52.236;5.710;2023-05-15T00:19:11;11.90;99.90
18502;DHT22;68437;52.236;5.710;2023-05-15T00:21:38;11.80;99.90
18502;DHT22;68437;52.236;5.710;2023-05-15T00:24:05;11.80;99.90
18502;DHT22;68437;52.236;5.710;2023-05-15T00:26:32;11.80;99.90
18502;DHT22;68437;52.236;5.710;2023-05-15T00:29:00;11.70;99.90
18502;DHT22;68437;52.236;5.710;2023-05-15T00:31:27;11.60;99.90
18502;DHT22;68437;52.236;5.710;2023-05-15T00:33:54;11.50;99.90
18502;DHT22;68437;52.236;5.710;2023-05-15T00:36:21;11.50;99.90
18502;DHT22;68437;52.236;5.710;2023-05-15T00:38:52;11.40;99.90
18502;DHT22;68437;52.236;5.710;2023-05-15T00:41:26;11.50;99.90
18502;DHT22;68437;52.236;5.710;2023-05-15T00:43:56;11.50;99.90
18502;DHT22;68437;52.236;5.710;2023-05-15T00:46:26;11.40;99.90
18502;DHT22;68437;52.236;5.710;2023-05-15T00:48:55;11.40;99.90
18502;DHT22;68437;52.236;5.710;2023-05-15T00:51:23;11.40;99.90
18502;DHT22;68437;52.236;5.710;2023-05-15T00:53:50;11.30;99.90
18502;DHT22;68437;52.236;5.710;2023-05-15T00:56:18;11.20;99.90
18502;DHT22;68437;52.236;5.710;2023-05-15T00:58:46;11.30;99.90
18502;DHT22;68437;52.236;5.710;2023-05-15T01:01:15;11.20;99.90
18502;DHT22;68437;52.236;5.710;2023-05-15T01:03:45;11.20;99.90
18502;DHT22;68437;52.236;5.710;2023-05-15T01:06:11;11.20;99.90
18502;DHT22;68437;52.236;5.710;2023-05-15T01:08:42;11.10;99.90
18502;DHT22;68437;52.236;5.710;2023-05-15T01:11:11;11.00;99.90
18502;DHT22;68437;52.236;5.710;2023-05-15T01:13:39;11.00;99.90
18502;DHT22;68437;52.236;5.710;2023-05-15T01:16:07;11.00;99.90
18502;DHT22;68437;52.236;5.710;2023-05-15T01:18:35;10.90;99.90
18502;DHT22;68437;52.236;5.710;2023-05-15T01:21:26;10.80;99.90
18502;DHT22;68437;52.236;5.710;2023-05-15T01:24:07;10.70;99.90
18502;DHT22;68437;52.236;5.710;2023-05-15T01:29:40;10.70;99.90
18502;DHT22;68437;52.236;5.710;2023-05-15T01:32:17;10.70;99.90
18502;DHT22;68437;52.236;5.710;2023-05-15T01:34:51;10.70;99.90
18502;DHT22;68437;52.236;5.710;2023-05-15T01:37:23;10.60;99.90
18502;DHT22;68437;52.236;5.710;2023-05-15T01:39:53;10.50;99.90
18502;DHT22;68437;52.236;5.710;2023-05-15T01:42:24;10.50;99.90
18502;DHT22;68437;52.236;5.710;2023-05-15T01:44:54;10.50;99.90
18502;DHT22;68437;52.236;5.710;2023-05-15T01:47:27;10.50;99.90
18502;DHT22;68437;52.236;5.710;2023-05-15T01:49:56;10.50;99.90
18502;DHT22;68437;52.236;5.710;2023-05-15T01:52:29;10.50;99.90
18502;DHT22;68437;52.236;5.710;2023-05-15T01:54:59;10.40;99.90
18502;DHT22;68437;52.236;5.710;2023-05-15T01:57:30;10.40;99.90
18502;DHT22;68437;52.236;5.710;2023-05-15T01:59:58;10.40;99.90
18502;DHT22;68437;52.236;5.710;2023-05-15T02:02:27;10.40;99.90
18502;DHT22;68437;52.236;5.710;2023-05-15T02:04:55;10.50;99.90
18502;DHT22;68437;52.236;5.710;2023-05-15T02:07:22;10.50;99.90
18502;DHT22;68437;52.236;5.710;2023-05-15T02:09:50;10.50;99.90
18502;DHT22;68437;52.236;5.710;2023-05-15T02:12:18;10.50;99.90
18502;DHT22;68437;52.236;5.710;2023-05-15T02:14:48;10.40;99.90
18502;DHT22;68437;52.236;5.710;2023-05-15T02:17:17;10.50;99.90
18502;DHT22;68437;52.236;5.710;2023-05-15T02:19:44;10.60;99.90
18502;DHT22;68437;52.236;5.710;2023-05-15T02:22:10;10.60;99.90
18502;DHT22;68437;52.236;5.710;2023-05-15T02:24:39;10.60;99.90
18502;DHT22;68437;52.236;5.710;2023-05-15T02:27:11;10.60;99.90
18502;DHT22;68437;52.236;5.710;2023-05-15T02:29:46;10.50;99.90
18502;DHT22;68437;52.236;5.710;2023-05-15T02:32:21;10.50;99.90
18502;DHT22;68437;52.236;5.710;2023-05-15T02:34:58;10.40;99.90
18502;DHT22;68437;52.236;5.710;2023-05-15T02:37:31;10.30;99.90
18502;DHT22;68437;52.236;5.710;2023-05-15T02:40:05;10.30;99.90
18502;DHT22;68437;52.236;5.710;2023-05-15T02:42:35;10.30;99.90
18502;DHT22;68437;52.236;5.710;2023-05-15T02:45:02;10.30;99.90
18502;DHT22;68437;52.236;5.710;2023-05-15T02:47:32;10.30;99.90
18502;DHT22;68437;52.236;5.710;2023-05-15T02:50:01;10.30;99.90
18502;DHT22;68437;52.236;5.710;2023-05-15T02:52:32;10.30;99.90
18502;DHT22;68437;52.236;5.710;2023-05-15T02:54:59;10.40;99.90
18502;DHT22;68437;52.236;5.710;2023-05-15T02:57:26;10.30;99.90
18502;DHT22;68437;52.236;5.710;2023-05-15T02:59:53;10.30;99.90
18502;DHT22;68437;52.236;5.710;2023-05-15T03:02:20;10.40;99.90
18502;DHT22;68437;52.236;5.710;2023-05-15T03:04:48;10.40;99.90
18502;DHT22;68437;52.236;5.710;2023-05-15T03:07:15;10.50;99.90
18502;DHT22;68437;52.236;5.710;2023-05-15T03:09:42;10.50;99.90
18502;DHT22;68437;52.236;5.710;2023-05-15T03:12:14;10.60;99.90
18502;DHT22;68437;52.236;5.710;2023-05-15T03:14:44;10.70;99.90
18502;DHT22;68437;52.236;5.710;2023-05-15T03:17:10;10.70;99.90
18502;DHT22;68437;52.236;5.710;2023-05-15T03:19:37;10.80;99.90
18502;DHT22;68437;52.236;5.710;2023-05-15T03:22:05;10.70;99.90
18502;DHT22;68437;52.236;5.710;2023-05-15T03:24:32;10.70;99.90
18502;DHT22;68437;52.236;5.710;2023-05-15T03:26:59;10.80;99.90
18502;DHT22;68437;52.236;5.710;2023-05-15T03:29:26;10.80;99.90
18502;DHT22;68437;52.236;5.710;2023-05-15T03:31:53;10.80;99.90
18502;DHT22;68437;52.236;5.710;2023-05-15T03:34:19;10.70;99.90
18502;DHT22;68437;52.236;5.710;2023-05-15T03:36:46;10.70;99.90
18502;DHT22;68437;52.236;5.710;2023-05-15T03:39:15;10.70;99.90
18502;DHT22;68437;52.236;5.710;2023-05-15T03:41:41;10.70;99.90
18502;DHT22;68437;52.236;5.710;2023-05-15T03:44:08;10.70;99.90
18502;DHT22;68437;52.236;5.710;2023-05-15T03:46:35;10.80;99.90
18502;DHT22;68437;52.236;5.710;2023-05-15T03:49:02;10.70;99.90
18502;DHT22;68437;52.236;5.710;2023-05-15T03:51:29;10.80;99.90
18502;DHT22;68437;52.236;5.710;2023-05-15T03:53:55;10.80;99.90
18502;DHT22;68437;52.236;5.710;2023-05-15T03:56:24;10.80;99.90
18502;DHT22;68437;52.236;5.710;2023-05-15T03:58:53;10.90;99.90
18502;DHT22;68437;52.236;5.710;2023-05-15T04:01:20;10.90;99.90
18502;DHT22;68437;52.236;5.710;2023-05-15T04:03:46;10.90;99.90
18502;DHT22;68437;52.236;5.710;2023-05-15T04:06:15;11.00;99.90
18502;DHT22;68437;52.236;5.710;2023-05-15T04:08:42;11.00;99.90
18502;DHT22;68437;52.236;5.710;2023-05-15T04:11:12;11.00;99.90
18502;DHT22;68437;52.236;5.710;2023-05-15T04:13:40;11.00;99.90
18502;DHT22;68437;52.236;5.710;2023-05-15T04:16:07;11.00;99.90
18502;DHT22;68437;52.236;5.710;2023-05-15T04:18:34;11.10;99.90
18502;DHT22;68437;52.236;5.710;2023-05-15T04:21:03;11.00;99.90
18502;DHT22;68437;52.236;5.710;2023-05-15T04:23:30;11.10;99.90
18502;DHT22;68437;52.236;5.710;2023-05-15T04:25:56;11.20;99.90
18502;DHT22;68437;52.236;5.710;2023-05-15T04:28:23;11.20;99.90
18502;DHT22;68437;52.236;5.710;2023-05-15T04:30:54;11.20;99.90
18502;DHT22;68437;52.236;5.710;2023-05-15T04:33:23;11.20;99.90
18502;DHT22;68437;52.236;5.710;2023-05-15T04:35:49;11.20;99.90
18502;DHT22;68437;52.236;5.710;2023-05-15T04:38:16;11.20;99.90
18502;DHT22;68437;52.236;5.710;2023-05-15T04:40:44;11.20;99.90
18502;DHT22;68437;52.236;5.710;2023-05-15T04:43:11;11.20;99.90
18502;DHT22;68437;52.236;5.710;2023-05-15T04:45:38;11.20;99.90
18502;DHT22;68437;52.236;5.710;2023-05-15T04:48:06;11.20;99.90
18502;DHT22;68437;52.236;5.710;2023-05-15T04:50:33;11.30;99.90
18502;DHT22;68437;52.236;5.710;2023-05-15T04:53:01;11.30;99.90
18502;DHT22;68437;52.236;5.710;2023-05-15T04:55:28;11.20;99.90
18502;DHT22;68437;52.236;5.710;2023-05-15T04:57:55;11.20;99.90
18502;DHT22;68437;52.236;5.710;2023-05-15T05:00:22;11.20;99.90
18502;DHT22;68437;52.236;5.710;2023-05-15T05:02:49;11.30;99.90
18502;DHT22;68437;52.236;5.710;2023-05-15T05:05:17;11.30;99.90
18502;DHT22;68437;52.236;5.710;2023-05-15T05:07:45;11.40;99.90
18502;DHT22;68437;52.236;5.710;2023-05-15T05:10:12;11.50;99.90
18502;DHT22;68437;52.236;5.710;2023-05-15T05:12:39;11.50;99.90
18502;DHT22;68437;52.236;5.710;2023-05-15T05:15:07;11.50;99.90
18502;DHT22;68437;52.236;5.710;2023-05-15T05:17:34;11.60;99.90
18502;DHT22;68437;52.236;5.710;2023-05-15T05:20:01;11.60;99.90
18502;DHT22;68437;52.236;5.710;2023-05-15T05:22:29;11.50;99.90
18502;DHT22;68437;52.236;5.710;2023-05-15T05:24:56;11.70;99.90
18502;DHT22;68437;52.236;5.710;2023-05-15T05:27:23;11.70;99.90
18502;DHT22;68437;52.236;5.710;2023-05-15T05:29:49;11.60;99.90
18502;DHT22;68437;52.236;5.710;2023-05-15T05:32:17;11.60;99.90
18502;DHT22;68437;52.236;5.710;2023-05-15T05:34:44;11.70;99.90
18502;DHT22;68437;52.236;5.710;2023-05-15T05:37:11;11.70;99.90
18502;DHT22;68437;52.236;5.710;2023-05-15T05:39:39;11.70;99.90
18502;DHT22;68437;52.236;5.710;2023-05-15T05:42:06;11.70;99.90
18502;DHT22;68437;52.236;5.710;2023-05-15T05:44:33;11.80;99.90
18502;DHT22;68437;52.236;5.710;2023-05-15T05:47:00;11.90;99.90
18502;DHT22;68437;52.236;5.710;2023-05-15T05:49:26;11.90;99.90
18502;DHT22;68437;52.236;5.710;2023-05-15T05:51:53;12.00;99.90
18502;DHT22;68437;52.236;5.710;2023-05-15T05:54:20;12.10;99.90
18502;DHT22;68437;52.236;5.710;2023-05-15T05:56:48;12.20;99.90
18502;DHT22;68437;52.236;5.710;2023-05-15T05:59:15;12.20;99.90
18502;DHT22;68437;52.236;5.710;2023-05-15T06:01:42;12.30;99.90
18502;DHT22;68437;52.236;5.710;2023-05-15T06:04:08;12.30;99.90
18502;DHT22;68437;52.236;5.710;2023-05-15T06:06:35;12.30;99.90
18502;DHT22;68437;52.236;5.710;2023-05-15T06:09:02;12.40;99.90
18502;DHT22;68437;52.236;5.710;2023-05-15T06:11:30;12.40;99.90
18502;DHT22;68437;52.236;5.710;2023-05-15T06:13:58;12.40;99.90
18502;DHT22;68437;52.236;5.710;2023-05-15T06:16:25;12.50;99.90
18502;DHT22;68437;52.236;5.710;2023-05-15T06:18:54;12.60;99.90
18502;DHT22;68437;52.236;5.710;2023-05-15T06:21:21;12.50;99.90
18502;DHT22;68437;52.236;5.710;2023-05-15T06:23:48;12.60;99.90
18502;DHT22;68437;52.236;5.710;2023-05-15T06:26:15;12.60;99.90
18502;DHT22;68437;52.236;5.710;2023-05-15T06:28:42;12.60;99.90
18502;DHT22;68437;52.236;5.710;2023-05-15T06:31:10;12.60;99.90
18502;DHT22;68437;52.236;5.710;2023-05-15T06:33:37;12.60;99.90
18502;DHT22;68437;52.236;5.710;2023-05-15T06:36:04;12.60;99.90
18502;DHT22;68437;52.236;5.710;2023-05-15T06:38:31;12.70;99.90
18502;DHT22;68437;52.236;5.710;2023-05-15T06:40:57;12.70;99.90
18502;DHT22;68437;52.236;5.710;2023-05-15T06:43:24;12.70;99.90
18502;DHT22;68437;52.236;5.710;2023-05-15T06:45:51;12.90;99.90
18502;DHT22;68437;52.236;5.710;2023-05-15T06:48:19;13.10;99.90
18502;DHT22;68437;52.236;5.710;2023-05-15T06:50:46;13.30;99.90
18502;DHT22;68437;52.236;5.710;2023-05-15T06:53:13;13.50;99.90
18502;DHT22;68437;52.236;5.710;2023-05-15T06:55:42;13.60;99.90
18502;DHT22;68437;52.236;5.710;2023-05-15T06:58:08;13.80;99.90
18502;DHT22;68437;52.236;5.710;2023-05-15T07:00:35;13.90;99.90
18502;DHT22;68437;52.236;5.710;2023-05-15T07:03:02;14.00;99.90
18502;DHT22;68437;52.236;5.710;2023-05-15T07:05:33;13.80;99.90
18502;DHT22;68437;52.236;5.710;2023-05-15T07:08:00;14.00;99.90
18502;DHT22;68437;52.236;5.710;2023-05-15T07:10:28;14.00;99.90
18502;DHT22;68437;52.236;5.710;2023-05-15T07:12:55;14.00;99.90
18502;DHT22;68437;52.236;5.710;2023-05-15T07:15:22;14.10;99.90
18502;DHT22;68437;52.236;5.710;2023-05-15T07:17:49;14.00;99.90
18502;DHT22;68437;52.236;5.710;2023-05-15T07:20:16;13.80;99.90
18502;DHT22;68437;52.236;5.710;2023-05-15T07:22:45;13.80;99.90
18502;DHT22;68437;52.236;5.710;2023-05-15T07:25:12;13.80;99.90
18502;DHT22;68437;52.236;5.710;2023-05-15T07:27:38;13.80;99.90
18502;DHT22;68437;52.236;5.710;2023-05-15T07:30:06;13.80;99.90
18502;DHT22;68437;52.236;5.710;2023-05-15T07:32:33;13.90;99.90
18502;DHT22;68437;52.236;5.710;2023-05-15T07:35:00;14.10;99.90
18502;DHT22;68437;52.236;5.710;2023-05-15T07:37:29;14.30;99.90
18502;DHT22;68437;52.236;5.710;2023-05-15T07:39:57;14.40;99.90
18502;DHT22;68437;52.236;5.710;2023-05-15T07:42:24;14.50;99.90
18502;DHT22;68437;52.236;5.710;2023-05-15T07:44:51;14.50;99.90
18502;DHT22;68437;52.236;5.710;2023-05-15T07:47:18;14.60;99.90
18502;DHT22;68437;52.236;5.710;2023-05-15T07:49:44;14.70;99.90
18502;DHT22;68437;52.236;5.710;2023-05-15T07:52:11;14.80;99.90
18502;DHT22;68437;52.236;5.710;2023-05-15T07:54:38;14.90;99.90
18502;DHT22;68437;52.236;5.710;2023-05-15T07:57:07;14.90;99.90
18502;DHT22;68437;52.236;5.710;2023-05-15T07:59:34;14.90;99.90
18502;DHT22;68437;52.236;5.710;2023-05-15T08:02:01;14.80;99.90
18502;DHT22;68437;52.236;5.710;2023-05-15T08:04:28;14.80;99.90
18502;DHT22;68437;52.236;5.710;2023-05-15T08:06:55;14.60;99.90
18502;DHT22;68437;52.236;5.710;2023-05-15T08:09:21;14.60;99.90
18502;DHT22;68437;52.236;5.710;2023-05-15T08:11:48;14.80;99.90
18502;DHT22;68437;52.236;5.710;2023-05-15T08:14:16;14.90;99.90
18502;DHT22;68437;52.236;5.710;2023-05-15T08:16:43;15.00;99.90
18502;DHT22;68437;52.236;5.710;2023-05-15T08:19:10;14.90;99.90
18502;DHT22;68437;52.236;5.710;2023-05-15T08:21:37;14.80;99.90
18502;DHT22;68437;52.236;5.710;2023-05-15T08:24:05;14.90;99.90
18502;DHT22;68437;52.236;5.710;2023-05-15T08:26:32;15.00;99.90
18502;DHT22;68437;52.236;5.710;2023-05-15T08:28:59;15.20;99.90
18502;DHT22;68437;52.236;5.710;2023-05-15T08:31:27;15.30;99.90
18502;DHT22;68437;52.236;5.710;2023-05-15T08:33:54;15.40;99.90
18502;DHT22;68437;52.236;5.710;2023-05-15T08:36:21;15.30;99.90
18502;DHT22;68437;52.236;5.710;2023-05-15T08:38:48;15.30;99.90
18502;DHT22;68437;52.236;5.710;2023-05-15T08:41:20;15.30;99.90
18502;DHT22;68437;52.236;5.710;2023-05-15T08:43:51;15.40;99.90
18502;DHT22;68437;52.236;5.710;2023-05-15T08:46:20;15.50;99.90
18502;DHT22;68437;52.236;5.710;2023-05-15T08:48:49;15.50;99.90
18502;DHT22;68437;52.236;5.710;2023-05-15T08:51:18;15.60;99.90
18502;DHT22;68437;52.236;5.710;2023-05-15T08:53:45;15.60;99.90
18502;DHT22;68437;52.236;5.710;2023-05-15T08:56:12;15.80;99.90
18502;DHT22;68437;52.236;5.710;2023-05-15T08:58:39;16.00;99.90
18502;DHT22;68437;52.236;5.710;2023-05-15T09:01:06;16.30;99.90
18502;DHT22;68437;52.236;5.710;2023-05-15T09:03:33;16.70;99.90
18502;DHT22;68437;52.236;5.710;2023-05-15T09:06:02;16.90;99.90
18502;DHT22;68437;52.236;5.710;2023-05-15T09:08:37;17.10;99.90
18502;DHT22;68437;52.236;5.710;2023-05-15T09:11:04;17.30;99.90
18502;DHT22;68437;52.236;5.710;2023-05-15T09:13:32;17.40;99.90
18502;DHT22;68437;52.236;5.710;2023-05-15T09:15:59;17.20;99.90
18502;DHT22;68437;52.236;5.710;2023-05-15T09:18:26;17.20;99.90
18502;DHT22;68437;52.236;5.710;2023-05-15T09:20:53;17.10;99.90
18502;DHT22;68437;52.236;5.710;2023-05-15T09:23:26;16.90;99.90
18502;DHT22;68437;52.236;5.710;2023-05-15T09:25:53;16.60;99.90
18502;DHT22;68437;52.236;5.710;2023-05-15T09:28:25;16.60;99.90
18502;DHT22;68437;52.236;5.710;2023-05-15T09:30:57;16.50;99.90
18502;DHT22;68437;52.236;5.710;2023-05-15T09:33:27;16.70;99.90
18502;DHT22;68437;52.236;5.710;2023-05-15T09:35:56;16.90;99.90
18502;DHT22;68437;52.236;5.710;2023-05-15T09:38:24;17.30;99.90
18502;DHT22;68437;52.236;5.710;2023-05-15T09:41:00;17.60;99.90
18502;DHT22;68437;52.236;5.710;2023-05-15T09:43:27;17.70;99.90
18502;DHT22;68437;52.236;5.710;2023-05-15T09:45:54;17.70;99.90
18502;DHT22;68437;52.236;5.710;2023-05-15T09:48:21;17.80;99.90
18502;DHT22;68437;52.236;5.710;2023-05-15T09:50:48;17.50;99.90
18502;DHT22;68437;52.236;5.710;2023-05-15T09:53:15;17.50;99.90
18502;DHT22;68437;52.236;5.710;2023-05-15T09:55:43;17.30;99.90
18502;DHT22;68437;52.236;5.710;2023-05-15T09:58:11;17.00;99.90
18502;DHT22;68437;52.236;5.710;2023-05-15T10:00:40;16.60;99.90
18502;DHT22;68437;52.236;5.710;2023-05-15T10:03:08;16.50;99.90
18502;DHT22;68437;52.236;5.710;2023-05-15T10:05:35;16.40;99.90
18502;DHT22;68437;52.236;5.710;2023-05-15T10:08:02;16.50;99.90
18502;DHT22;68437;52.236;5.710;2023-05-15T10:10:30;16.90;99.90
18502;DHT22;68437;52.236;5.710;2023-05-15T10:12:59;17.40;99.90
18502;DHT22;68437;52.236;5.710;2023-05-15T10:15:29;17.50;99.90
18502;DHT22;68437;52.236;5.710;2023-05-15T10:17:56;17.40;99.90
18502;DHT22;68437;52.236;5.710;2023-05-15T10:20:25;16.90;99.90
18502;DHT22;68437;52.236;5.710;2023-05-15T10:22:54;16.50;99.90
18502;DHT22;68437;52.236;5.710;2023-05-15T10:25:32;16.40;99.90
18502;DHT22;68437;52.236;5.710;2023-05-15T10:28:08;16.70;99.90
18502;DHT22;68437;52.236;5.710;2023-05-15T10:30:35;17.10;99.90
18502;DHT22;68437;52.236;5.710;2023-05-15T10:33:06;17.50;99.90
18502;DHT22;68437;52.236;5.710;2023-05-15T10:35:33;17.40;99.90
18502;DHT22;68437;52.236;5.710;2023-05-15T10:38:03;17.10;99.90
18502;DHT22;68437;52.236;5.710;2023-05-15T10:40:31;16.90;99.90
18502;DHT22;68437;52.236;5.710;2023-05-15T10:42:59;16.50;99.90
18502;DHT22;68437;52.236;5.710;2023-05-15T10:45:28;16.20;99.90
18502;DHT22;68437;52.236;5.710;2023-05-15T10:47:56;15.90;99.90
18502;DHT22;68437;52.236;5.710;2023-05-15T10:50:23;15.90;99.90
18502;DHT22;68437;52.236;5.710;2023-05-15T10:52:50;15.70;99.90
18502;DHT22;68437;52.236;5.710;2023-05-15T10:55:17;15.70;99.90
18502;DHT22;68437;52.236;5.710;2023-05-15T10:57:45;15.60;99.90
18502;DHT22;68437;52.236;5.710;2023-05-15T11:00:25;15.60;99.90
18502;DHT22;68437;52.236;5.710;2023-05-15T11:02:54;15.60;99.90
18502;DHT22;68437;52.236;5.710;2023-05-15T11:05:23;15.50;99.90
18502;DHT22;68437;52.236;5.710;2023-05-15T11:08:23;15.50;99.90
18502;DHT22;68437;52.236;5.710;2023-05-15T11:10:52;15.40;99.90
18502;DHT22;68437;52.236;5.710;2023-05-15T11:13:19;15.50;99.90
18502;DHT22;68437;52.236;5.710;2023-05-15T11:15:47;15.60;99.90
18502;DHT22;68437;52.236;5.710;2023-05-15T11:18:15;15.50;99.90
18502;DHT22;68437;52.236;5.710;2023-05-15T11:21:05;15.80;99.90
18502;DHT22;68437;52.236;5.710;2023-05-15T11:23:37;15.90;99.90
18502;DHT22;68437;52.236;5.710;2023-05-15T11:26:05;15.90;99.90
18502;DHT22;68437;52.236;5.710;2023-05-15T11:28:40;15.80;99.90
18502;DHT22;68437;52.236;5.710;2023-05-15T11:31:07;15.90;99.90
18502;DHT22;68437;52.236;5.710;2023-05-15T11:33:37;15.80;99.90
18502;DHT22;68437;52.236;5.710;2023-05-15T11:36:04;15.70;99.90
18502;DHT22;68437;52.236;5.710;2023-05-15T11:38:38;15.70;99.90
18502;DHT22;68437;52.236;5.710;2023-05-15T11:41:17;15.90;99.90
18502;DHT22;68437;52.236;5.710;2023-05-15T11:43:44;15.80;99.90
18502;DHT22;68437;52.236;5.710;2023-05-15T11:46:11;15.90;99.90
18502;DHT22;68437;52.236;5.710;2023-05-15T11:48:42;16.00;99.90
18502;DHT22;68437;52.236;5.710;2023-05-15T11:51:15;16.00;99.90
18502;DHT22;68437;52.236;5.710;2023-05-15T11:53:48;15.90;99.90
18502;DHT22;68437;52.236;5.710;2023-05-15T11:56:16;16.00;99.90
18502;DHT22;68437;52.236;5.710;2023-05-15T11:58:46;16.00;99.90
18502;DHT22;68437;52.236;5.710;2023-05-15T12:01:13;16.00;99.90
18502;DHT22;68437;52.236;5.710;2023-05-15T12:03:42;16.00;99.90
18502;DHT22;68437;52.236;5.710;2023-05-15T12:06:09;15.90;99.90
18502;DHT22;68437;52.236;5.710;2023-05-15T12:08:39;15.80;99.90
18502;DHT22;68437;52.236;5.710;2023-05-15T12:11:07;15.70;99.90
18502;DHT22;68437;52.236;5.710;2023-05-15T12:13:34;15.60;99.90
18502;DHT22;68437;52.236;5.710;2023-05-15T12:16:02;15.50;99.90
18502;DHT22;68437;52.236;5.710;2023-05-15T12:18:29;15.40;99.90
18502;DHT22;68437;52.236;5.710;2023-05-15T12:20:58;15.40;99.90
18502;DHT22;68437;52.236;5.710;2023-05-15T12:23:29;15.20;99.90
18502;DHT22;68437;52.236;5.710;2023-05-15T12:25:58;15.30;99.90
18502;DHT22;68437;52.236;5.710;2023-05-15T12:28:27;15.40;99.90
18502;DHT22;68437;52.236;5.710;2023-05-15T12:30:57;15.50;99.90
18502;DHT22;68437;52.236;5.710;2023-05-15T12:33:24;15.40;99.90
18502;DHT22;68437;52.236;5.710;2023-05-15T12:35:54;15.20;99.90
18502;DHT22;68437;52.236;5.710;2023-05-15T12:38:22;15.10;99.90
18502;DHT22;68437;52.236;5.710;2023-05-15T12:40:51;15.20;99.90
18502;DHT22;68437;52.236;5.710;2023-05-15T12:43:19;15.20;99.90
18502;DHT22;68437;52.236;5.710;2023-05-15T12:45:51;15.10;99.90
18502;DHT22;68437;52.236;5.710;2023-05-15T12:48:17;15.10;99.90
18502;DHT22;68437;52.236;5.710;2023-05-15T12:50:44;15.10;99.90
18502;DHT22;68437;52.236;5.710;2023-05-15T12:53:13;15.10;99.90
18502;DHT22;68437;52.236;5.710;2023-05-15T12:55:43;15.10;99.90
18502;DHT22;68437;52.236;5.710;2023-05-15T12:58:14;15.20;99.90
18502;DHT22;68437;52.236;5.710;2023-05-15T13:00:43;15.20;99.90
18502;DHT22;68437;52.236;5.710;2023-05-15T13:03:13;15.10;99.90
18502;DHT22;68437;52.236;5.710;2023-05-15T13:05:42;15.10;99.90
18502;DHT22;68437;52.236;5.710;2023-05-15T13:08:13;15.00;99.90
18502;DHT22;68437;52.236;5.710;2023-05-15T13:10:44;15.10;99.90
18502;DHT22;68437;52.236;5.710;2023-05-15T13:13:12;15.20;99.90
18502;DHT22;68437;52.236;5.710;2023-05-15T13:15:41;15.30;99.90
18502;DHT22;68437;52.236;5.710;2023-05-15T13:18:09;15.60;99.90
18502;DHT22;68437;52.236;5.710;2023-05-15T13:20:37;15.80;99.90
18502;DHT22;68437;52.236;5.710;2023-05-15T13:23:05;16.00;99.90
18502;DHT22;68437;52.236;5.710;2023-05-15T13:25:32;16.30;99.90
18502;DHT22;68437;52.236;5.710;2023-05-15T13:28:03;16.50;99.90
18502;DHT22;68437;52.236;5.710;2023-05-15T13:30:31;16.50;99.90
18502;DHT22;68437;52.236;5.710;2023-05-15T13:32:59;16.50;99.90
18502;DHT22;68437;52.236;5.710;2023-05-15T13:35:26;16.90;99.90
18502;DHT22;68437;52.236;5.710;2023-05-15T13:37:53;17.10;99.90
18502;DHT22;68437;52.236;5.710;2023-05-15T13:40:20;17.10;99.90
18502;DHT22;68437;52.236;5.710;2023-05-15T13:42:47;17.00;99.90
18502;DHT22;68437;52.236;5.710;2023-05-15T13:45:16;17.10;99.90
18502;DHT22;68437;52.236;5.710;2023-05-15T13:47:43;16.90;99.90
18502;DHT22;68437;52.236;5.710;2023-05-15T13:50:11;16.80;99.90
18502;DHT22;68437;52.236;5.710;2023-05-15T13:52:39;16.90;99.90
18502;DHT22;68437;52.236;5.710;2023-05-15T13:55:07;17.00;99.90
18502;DHT22;68437;52.236;5.710;2023-05-15T13:57:35;17.00;99.90
18502;DHT22;68437;52.236;5.710;2023-05-15T14:00:02;16.90;99.90
18502;DHT22;68437;52.236;5.710;2023-05-15T14:02:34;16.90;99.90
18502;DHT22;68437;52.236;5.710;2023-05-15T14:05:01;16.70;99.90
18502;DHT22;68437;52.236;5.710;2023-05-15T14:07:29;16.70;99.90
18502;DHT22;68437;52.236;5.710;2023-05-15T14:09:56;16.80;99.90
18502;DHT22;68437;52.236;5.710;2023-05-15T14:12:23;17.00;99.90
18502;DHT22;68437;52.236;5.710;2023-05-15T14:14:50;16.70;99.90
18502;DHT22;68437;52.236;5.710;2023-05-15T14:17:17;16.40;99.90
18502;DHT22;68437;52.236;5.710;2023-05-15T14:19:45;16.20;99.90
18502;DHT22;68437;52.236;5.710;2023-05-15T14:22:12;16.00;99.90
18502;DHT22;68437;52.236;5.710;2023-05-15T14:24:39;16.00;99.90
18502;DHT22;68437;52.236;5.710;2023-05-15T14:27:05;16.00;99.90
18502;DHT22;68437;52.236;5.710;2023-05-15T14:29:33;16.00;99.90
18502;DHT22;68437;52.236;5.710;2023-05-15T14:32:00;16.00;99.90
18502;DHT22;68437;52.236;5.710;2023-05-15T14:34:29;16.10;99.90
18502;DHT22;68437;52.236;5.710;2023-05-15T14:36:57;16.20;99.90
18502;DHT22;68437;52.236;5.710;2023-05-15T14:39:24;16.10;99.90
18502;DHT22;68437;52.236;5.710;2023-05-15T14:41:50;16.20;99.90
18502;DHT22;68437;52.236;5.710;2023-05-15T14:44:17;16.20;99.90
18502;DHT22;68437;52.236;5.710;2023-05-15T14:46:44;16.20;99.90
18502;DHT22;68437;52.236;5.710;2023-05-15T14:49:11;16.10;99.90
18502;DHT22;68437;52.236;5.710;2023-05-15T14:51:38;16.00;99.90
18502;DHT22;68437;52.236;5.710;2023-05-15T14:54:06;15.80;99.90
18502;DHT22;68437;52.236;5.710;2023-05-15T14:56:33;15.60;99.90
18502;DHT22;68437;52.236;5.710;2023-05-15T14:59:00;15.50;99.90
18502;DHT22;68437;52.236;5.710;2023-05-15T15:01:27;15.30;99.90
18502;DHT22;68437;52.236;5.710;2023-05-15T15:03:54;15.10;99.90
18502;DHT22;68437;52.236;5.710;2023-05-15T15:06:20;14.90;99.90
18502;DHT22;68437;52.236;5.710;2023-05-15T15:08:50;14.60;99.90
18502;DHT22;68437;52.236;5.710;2023-05-15T15:11:18;14.40;99.90
18502;DHT22;68437;52.236;5.710;2023-05-15T15:13:45;14.40;99.90
18502;DHT22;68437;52.236;5.710;2023-05-15T15:16:12;14.30;99.90
18502;DHT22;68437;52.236;5.710;2023-05-15T15:18:39;14.30;99.90
18502;DHT22;68437;52.236;5.710;2023-05-15T15:21:07;14.50;99.90
18502;DHT22;68437;52.236;5.710;2023-05-15T15:23:34;14.60;99.90
18502;DHT22;68437;52.236;5.710;2023-05-15T15:26:01;14.50;99.90
18502;DHT22;68437;52.236;5.710;2023-05-15T15:28:29;14.50;99.90
18502;DHT22;68437;52.236;5.710;2023-05-15T15:30:58;14.30;99.90
18502;DHT22;68437;52.236;5.710;2023-05-15T15:33:25;14.20;99.90
18502;DHT22;68437;52.236;5.710;2023-05-15T15:35:51;14.00;99.90
18502;DHT22;68437;52.236;5.710;2023-05-15T15:38:18;13.90;99.90
18502;DHT22;68437;52.236;5.710;2023-05-15T15:40:45;13.90;99.90